Terminal Aerodrome Forecast
Issued by NWS

Home | Current Version | Previous Version | Text Only | Print | Product List | Glossary On
Versions: 1 2 3 4 5 6 7 8 9 10 11 12 13 14
263
FTUS43 KFGF 251137
TAFTVF
TAF
KTVF 251137Z 2512/2612 08009KT P6SM BKN100
     FM251800 11013KT P6SM -SHRA BKN090
     FM260000 12015KT P6SM -SHRA BKN025
     FM260500 12012KT P6SM BKN010
      AMD LTD TO CLD VIS AND WIND=

USA.gov is the U.S. government's official web portal to all federal, state and local government web resources and services.